地図

経路データ

SID SEASON NUMBER BASIN SUBBASIN NAME ISO_TIME NATURE LAT LON WMO_WIND WMO_PRES WMO_AGENCY TRACK_TYPE DIST2LAND LANDFALL IFLAG USA_AGENCY USA_ATCF_ID USA_LAT USA_LON USA_RECORD USA_STATUS USA_WIND USA_PRES USA_SSHS USA_R34_NE USA_R34_SE USA_R34_SW USA_R34_NW USA_R50_NE USA_R50_SE USA_R50_SW USA_R50_NW USA_R64_NE USA_R64_SE USA_R64_SW USA_R64_NW USA_POCI USA_ROCI USA_RMW USA_EYE TOKYO_LAT TOKYO_LON TOKYO_GRADE TOKYO_WIND TOKYO_PRES TOKYO_R50_DIR TOKYO_R50_LONG TOKYO_R50_SHORT TOKYO_R30_DIR TOKYO_R30_LONG TOKYO_R30_SHORT TOKYO_LAND CMA_LAT CMA_LON CMA_CAT CMA_WIND CMA_PRES HKO_LAT HKO_LON HKO_CAT HKO_WIND HKO_PRES NEWDELHI_LAT NEWDELHI_LON NEWDELHI_GRADE NEWDELHI_WIND NEWDELHI_PRES NEWDELHI_CI NEWDELHI_DP NEWDELHI_POCI REUNION_LAT REUNION_LON REUNION_TYPE REUNION_WIND REUNION_PRES REUNION_TNUM REUNION_CI REUNION_RMW REUNION_R34_NE REUNION_R34_SE REUNION_R34_SW REUNION_R34_NW REUNION_R50_NE REUNION_R50_SE REUNION_R50_SW REUNION_R50_NW REUNION_R64_NE REUNION_R64_SE REUNION_R64_SW REUNION_R64_NW BOM_LAT BOM_LON BOM_TYPE BOM_WIND BOM_PRES BOM_TNUM BOM_CI BOM_RMW BOM_R34_NE BOM_R34_SE BOM_R34_SW BOM_R34_NW BOM_R50_NE BOM_R50_SE BOM_R50_SW BOM_R50_NW BOM_R64_NE BOM_R64_SE BOM_R64_SW BOM_R64_NW BOM_ROCI BOM_POCI BOM_EYE BOM_POS_METHOD BOM_PRES_METHOD NADI_LAT NADI_LON NADI_CAT NADI_WIND NADI_PRES WELLINGTON_LAT WELLINGTON_LON WELLINGTON_WIND WELLINGTON_PRES DS824_LAT DS824_LON DS824_STAGE DS824_WIND DS824_PRES TD9636_LAT TD9636_LON TD9636_STAGE TD9636_WIND TD9636_PRES TD9635_LAT TD9635_LON TD9635_WIND TD9635_PRES TD9635_ROCI NEUMANN_LAT NEUMANN_LON NEUMANN_CLASS NEUMANN_WIND NEUMANN_PRES MLC_LAT MLC_LON MLC_CLASS MLC_WIND MLC_PRES USA_GUST BOM_GUST BOM_GUST_PER REUNION_GUST REUNION_GUST_PER USA_SEAHGT USA_SEARAD_NE USA_SEARAD_SE USA_SEARAD_SW USA_SEARAD_NW STORM_SPEED STORM_DIR
2015293N16164 2015 97 WP MM NOT_NAMED 2015-10-19 18:00:00 NR 16.2000 164.100 main 2558 2552 O_____________ jtwc_wp WP262015 16.2000 164.100 DB 15 1010 -3 12 309
2015293N16164 2015 97 WP MM NOT_NAMED 2015-10-19 21:00:00 NR 16.5729 163.623 main 2567 2561 P_____________ WP262015 16.5729 163.623 DB 17 1008 -3 12 313
2015293N16164 2015 97 WP MM NOT_NAMED 2015-10-20 00:00:00 NR 17.0000 163.200 main 2582 2582 O_____________ jtwc_wp WP262015 17.0000 163.200 DB 20 1007 -3 12 322
2015293N16164 2015 97 WP MM NOT_NAMED 2015-10-20 03:00:00 NR 17.5072 162.857 main 2615 2609 P_____________ WP262015 17.5072 162.857 DB 20 1007 -3 12 326
2015293N16164 2015 97 WP MM NOT_NAMED 2015-10-20 06:00:00 NR 18.0000 162.500 main 2643 2643 O_____________ jtwc_wp WP262015 18.0000 162.500 DB 20 1007 -3 1008 160 50 12 317
2015293N16164 2015 97 WP MM NOT_NAMED 2015-10-20 09:00:00 NR 18.3725 162.022 main 2657 2652 P_____________ WP262015 18.3725 162.022 DB 20 1007 -3 1008 160 50 12 306
2015293N16164 2015 97 WP MM NOT_NAMED 2015-10-20 12:00:00 NR 18.7000 161.500 main 2663 2658 O_____________ jtwc_wp WP262015 18.7000 161.500 DB 20 1007 -3 1008 160 50 12 306
2015293N16164 2015 97 WP MM NOT_NAMED 2015-10-20 15:00:00 NR 19.0570 161.037 main 2680 2642 P_____________ WP262015 19.0570 161.037 DB 20 1007 -3 1008 160 50 12 307
2015293N16164 2015 97 WP MM NOT_NAMED 2015-10-20 18:00:00 NR 19.4000 160.500 main 2642 2568 O_____________ jtwc_wp WP262015 19.4000 160.500 DB 20 1007 -3 1008 160 50 14 297
2015293N16164 2015 97 WP MM NOT_NAMED 2015-10-20 21:00:00 NR 19.6857 159.735 main 2561 2487 P_____________ WP262015 19.6857 159.735 DB 20 1007 -3 1008 157 50 15 293
2015293N16164 2015 97 WP MM NOT_NAMED 2015-10-21 00:00:00 NR 20.0000 159.000 main 2487 2426 O_____________ jtwc_wp WP262015 20.0000 159.000 DB 20 1007 -3 1008 155 50 13 304
2015293N16164 2015 97 WP MM NOT_NAMED 2015-10-21 03:00:00 NR 20.4192 158.577 main 2426 2357 P_____________ WP262015 20.4192 158.577 DB 20 1006 -3 1009 152 50 12 320
2015293N16164 2015 97 WP MM NOT_NAMED 2015-10-21 06:00:00 NR 20.9000 158.200 main 2357 2282 O_____________ jtwc_wp WP262015 20.9000 158.200 DB 20 1006 -3 1010 150 50 13 316
2015293N16164 2015 97 WP MM NOT_NAMED 2015-10-21 09:00:00 NR 21.3704 157.600 main 2274 2190 P_____________ WP262015 21.3704 157.600 DB 20 1006 -3 1010 150 50 15 312
2015293N16164 2015 97 WP MM NOT_NAMED 2015-10-21 12:00:00 NR 21.9000 157.000 main 2190 2113 O_____________ jtwc_wp WP262015 21.9000 157.000 DB 20 1007 -3 1010 150 50 15 321
2015293N16164 2015 97 WP MM NOT_NAMED 2015-10-21 15:00:00 NR 22.5497 156.562 main 2113 2028 P_____________ WP262015 22.5497 156.562 DB 20 1007 -3 1010 150 50 15 330
2015293N16164 2015 97 WP MM NOT_NAMED 2015-10-21 18:00:00 NR 23.2000 156.200 main 2028 1959 O_____________ jtwc_wp WP262015 23.2000 156.200 DB 20 1007 -3 1010 150 50 13 328
2015293N16164 2015 97 WP MM NOT_NAMED 2015-10-21 21:00:00 NR 23.6776 155.797 main 1959 1898 P_____________ WP262015 23.6776 155.797 DB 22 1005 -3 1010 150 50 12 327
2015293N16164 2015 97 WP MM NOT_NAMED 2015-10-22 00:00:00 DS 24.2000 155.500 main 1898 1828 O_____________ jtwc_wp WP262015 24.2000 155.500 WV 25 1004 -3 1010 150 50 14 341
2015293N16164 2015 97 WP MM NOT_NAMED 2015-10-22 03:00:00 DS 24.9696 155.316 main 1820 1766 P_____________ WP262015 24.9696 155.316 WV 25 1004 -3 1010 150 50 16 357
2015293N16164 2015 97 WP MM NOT_NAMED 2015-10-22 06:00:00 SS 25.8000 155.400 main 1766 1744 O_____________ jtwc_wp WP262015 25.8000 155.400 SD 25 1004 -2 1010 150 50 16 16
2015293N16164 2015 97 WP MM NOT_NAMED 2015-10-22 09:00:00 SS 26.5220 155.800 main 1745 1738 P_____________ WP262015 26.5220 155.800 SD 27 1002 -2 1010 150 50 17 35
2015293N16164 2015 97 WP MM NOT_NAMED 2015-10-22 12:00:00 SS 27.2000 156.500 main 1751 1751 O_____________ jtwc_wp WP262015 27.2000 156.500 SD 30 1000 -2 1010 150 50 19 46
2015293N16164 2015 97 WP MM NOT_NAMED 2015-10-22 15:00:00 SS 27.8182 157.304 main 1777 1777 P_____________ WP262015 27.8182 157.304 SD 30 1000 -2 1010 150 50 21 52
2015293N16164 2015 97 WP MM NOT_NAMED 2015-10-22 18:00:00 SS 28.5000 158.400 main 1827 1827 O_____________ jtwc_wp WP262015 28.5000 158.400 SD 30 1000 -2 1010 150 50 27 55
2015293N16164 2015 97 WP MM NOT_NAMED 2015-10-22 21:00:00 SS 29.3528 159.842 main 1898 1898 P_____________ WP262015 29.3528 159.842 SD 32 998 -2 1010 150 50 32 56
2015293N16164 2015 97 WP MM NOT_NAMED 2015-10-23 00:00:00 ET 30.3000 161.500 main 1986 O_____________ jtwc_wp WP262015 30.3000 161.500 EX 35 996 -4 1010 150 50 34 57

デジタル台風データ・検索

IBTrACS Databaseについて

本データベースは、米国NOAAが公開する1842年以降の世界の熱帯低気圧のベストトラックデータアーカイブInternational Best Track Archive for Climate Stewardship (IBTrACS)を、ウェブで閲覧しやすい形式に変換したものです。

最終更新日:2021-12-03